Onweer radar Meer informatie blitzortung!


Regen radar Meer informatie rain snow radar


Bezoek onze andere website:

Template documentation
and downloads

And another site



Het weer levert geen direct gevaar op.    Er zijn geen waarschuwingen afgegeven.

METAR rapporten vliegvelden


Notice: Undefined offset: 1 in /var/www/vhosts/meteo3131.info/httpdocs/weather28/metar/wsMetarTxt.php on line 87

Notice: Array to string conversion in /var/www/vhosts/meteo3131.info/httpdocs/weather28/metar/wsMetarTxt.php on line 92
   
EHRD - Rotterdam
Gewijzigd: 23-05-2018 04:55
Licht bewolkt  
Licht bewolkt  
   Wind: NO 3.7 km/h
Wind: NO 3.7 km/h
Temperatuur: 14°C
Dauwpunt: 12°C
Vochtigheid: 88%
Barometer: 1017 hPa
Bewolking: Few Clouds
Zicht: meer dan 10 km
Bewolking: Licht bewolkt 1500 ft
EHRD 230255Z AUTO 04002KT 9999 FEW015CB 14/12 Q1017 NOSIG
EHAM - Amsterdam
Gewijzigd: 23-05-2018 04:55
Helder  
Helder  
   Wind: NO 9.3 km/h
Wind: NO 9.3 km/h
Temperatuur: 15°C
Dauwpunt: 13°C
Vochtigheid: 88%
Barometer: 1017 hPa
Zicht: meer dan 10 km
Bewolking: Helder ft
EHAM 230255Z 04005KT CAVOK 15/13 Q1017 NOSIG
EHEH - Eindhoven
Gewijzigd: 23-05-2018 04:55
Grotendeels bewolkt  
Grotendeels bewolkt  
   Wind: Noorden 9.3 km/h
Wind: Noorden 9.3 km/h
Temperatuur: 15°C
Dauwpunt: 14°C
Vochtigheid: 94%
Barometer: 1016 hPa
Bewolking: Mostly Cloudy
Zicht: meer dan 10 km
Bewolking: Licht bewolkt 1500 ft,
Grotendeels bewolkt 3800 ft,
Grotendeels bewolkt 4600 ft,
Grotendeels bewolkt 5900 ft
EHEH 230255Z AUTO 01005KT 9999 FEW015CB BKN038 BKN046 BKN059 15/14 Q1016 BLU
EHBK - Maastricht
Gewijzigd: 23-05-2018 04:55
Nevel, Gedeeltelijk bewolkt  
Nevel, Gedeeltelijk bewolkt  
   Wind: Kalm
Wind: Kalm
Temperatuur: 14°C
Dauwpunt: 13°C
Vochtigheid: 94%
Barometer: 1016 hPa
Bewolking: Partly Cloudy
Zicht: 4 km
Bewolking: Gedeeltelijk bewolkt ft
EHBK 230255Z AUTO 00000KT 3600 BR NSC 14/13 Q1016
EDDL - Brussel
Gewijzigd: 01-01-1970 01:00
Verouderd
  
  
   Wind: Kalm
Wind: Kalm
EBOS - Dusseldorf
Gewijzigd: 23-05-2018 04:50
Wat regen mogelijk, Licht bewolkt  
Wat regen mogelijk, Licht bewolkt  
   Wind: Noorden 20.4 km/h
Wind: Noorden 20.4 km/h
Temperatuur: 12°C
Dauwpunt: 10°C
Vochtigheid: 88%
Barometer: 1018 hPa
Bewolking: Few Clouds
Zicht: meer dan 10 km
Bewolking: Licht bewolkt 3000 ft
EBOS 230250Z 35011KT 9999 -RA FEW030 12/10 Q1018 NOSIG

Script ontwikkeld door  Saratoga-weather.org Aangepast voor de template door  Weerstation Leuven

U vindt ons ook hier:

Het Weer Aktueel

European Weather Network

Weather Underground

WeatherlinkIP

HAMweather, WeatherForYou, PWS Weather

Apparatuur in gebruik:

Weerstation
Davis VP2

Weerprogramma
Cumulus

Weercomputer
Zotac

Webleverancier
Quick Servers

Davis VP2

Cumulus

Zotac

Quick Servers